Time;durP1;ratioP1;P1;durP2;ratioP2;P2;SDS_P1;SDS_P2;PMS_P1;PMS_P2;Temp;Humidity;BMP_temperature;BMP_pressure;BME280_temperature;BME280_humidity;BME280_pressure;Samples;Min_cycle;Max_cycle;Signal;HPM_P1;HPM_P2
2022/07/04 00:00:26;;;;;;;1.70;1.60;;;;;;;21.11;87.65;96748.53;5132612;27;20200;-58
2022/07/04 00:02:53;;;;;;;1.70;1.45;;;;;;;21.09;87.90;96747.84;5132631;27;20213;-59
2022/07/04 00:05:22;;;;;;;2.20;2.00;;;;;;;21.06;87.49;96738.34;5131099;27;20208;-58
2022/07/04 00:07:51;;;;;;;1.98;1.70;;;;;;;21.07;87.61;96742.69;5132338;27;20226;-59
2022/07/04 00:10:21;;;;;;;2.63;1.60;;;;;;;21.04;88.84;96750.34;5131925;27;20561;-60
2022/07/04 00:12:48;;;;;;;1.80;1.70;;;;;;;21.05;88.36;96751.97;5132667;27;20207;-58
2022/07/04 00:15:15;;;;;;;2.30;1.70;;;;;;;21.11;87.42;96759.28;5131870;27;20261;-60
2022/07/04 00:17:42;;;;;;;2.28;1.65;;;;;;;21.18;86.95;96762.78;5131674;27;20257;-56
2022/07/04 00:20:11;;;;;;;1.80;1.70;;;;;;;21.28;85.86;96758.66;5132491;27;20192;-57
2022/07/04 00:22:38;;;;;;;1.92;1.80;;;;;;;21.35;84.17;96761.34;5131693;27;20689;-59
2022/07/04 00:25:07;;;;;;;1.85;1.75;;;;;;;21.43;83.04;96761.16;5132242;28;20204;-59
2022/07/04 00:27:36;;;;;;;3.90;2.00;;;;;;;21.52;81.95;96757.19;5132535;27;20540;-58
2022/07/04 00:30:03;;;;;;;3.67;1.98;;;;;;;21.54;82.48;96757.81;5132427;28;20316;-58
2022/07/04 00:32:30;;;;;;;1.45;1.45;;;;;;;21.55;82.63;96759.47;5132153;27;20208;-57
2022/07/04 00:34:56;;;;;;;2.00;1.80;;;;;;;21.56;83.32;96763.00;5131827;27;20264;-59
2022/07/04 00:37:23;;;;;;;3.97;1.70;;;;;;;21.54;83.51;96768.56;5132146;28;20204;-59
2022/07/04 00:39:51;;;;;;;2.00;1.83;;;;;;;21.50;83.69;96764.66;5131102;28;20189;-59
2022/07/04 00:42:18;;;;;;;2.03;1.92;;;;;;;21.47;83.95;96754.28;5132106;28;20232;-60
2022/07/04 00:44:46;;;;;;;2.63;2.00;;;;;;;21.44;83.41;96757.41;5132751;27;20273;-59
2022/07/04 00:47:14;;;;;;;2.65;1.52;;;;;;;21.39;84.39;96753.69;5132259;28;20256;-58
2022/07/04 00:49:45;;;;;;;2.00;1.83;;;;;;;21.38;83.42;96752.03;5132096;28;20220;-60
2022/07/04 00:52:13;;;;;;;1.70;1.60;;;;;;;21.31;83.89;96743.97;5135598;28;20200;-60
2022/07/04 00:54:40;;;;;;;1.95;1.75;;;;;;;21.31;84.54;96758.25;5157755;27;20204;-59
2022/07/04 00:57:09;;;;;;;1.85;1.60;;;;;;;21.21;84.94;96748.94;5154675;27;20196;-59
2022/07/04 00:59:36;;;;;;;2.38;1.67;;;;;;;21.16;85.57;96749.53;5150230;28;20196;-58
2022/07/04 01:02:08;;;;;;;1.75;1.65;;;;;;;21.17;85.30;96756.59;5145340;28;20208;-60
2022/07/04 01:04:38;;;;;;;2.60;1.80;;;;;;;21.19;84.26;96765.25;5141163;28;20256;-60
2022/07/04 01:07:05;;;;;;;1.65;1.55;;;;;;;21.20;82.32;96777.69;5146229;27;20211;-59
2022/07/04 01:09:32;;;;;;;2.30;1.73;;;;;;;21.10;84.58;96777.28;5149351;27;20281;-59
2022/07/04 01:11:58;;;;;;;3.63;1.65;;;;;;;21.07;84.41;96760.69;5142180;28;20312;-59
2022/07/04 01:14:28;;;;;;;1.98;1.77;;;;;;;21.04;86.35;96761.94;5154408;28;20192;-59
2022/07/04 01:16:56;;;;;;;2.03;1.77;;;;;;;21.01;86.53;96766.91;5156752;27;20197;-58
2022/07/04 01:19:26;;;;;;;1.80;1.70;;;;;;;21.03;86.27;96775.56;5158933;27;20189;-57
2022/07/04 01:21:56;;;;;;;1.88;1.55;;;;;;;21.01;86.66;96766.91;5159164;27;20189;-56
2022/07/04 01:24:23;;;;;;;1.90;1.80;;;;;;;20.95;88.36;96773.91;5157215;28;20181;-57
2022/07/04 01:26:49;;;;;;;1.50;1.40;;;;;;;21.01;86.29;96794.59;5154270;28;20207;-57
2022/07/04 01:29:19;;;;;;;1.92;1.83;;;;;;;20.96;86.46;96791.69;5157579;27;20227;-58
2022/07/04 01:31:46;;;;;;;3.17;1.85;;;;;;;20.91;87.43;96798.69;5159511;27;20255;-62
2022/07/04 01:34:14;;;;;;;3.33;1.65;;;;;;;20.85;88.47;96794.97;5160963;27;20177;-61
2022/07/04 01:36:40;;;;;;;1.88;1.77;;;;;;;20.82;88.63;96790.00;5153154;27;20196;-59
2022/07/04 01:39:14;;;;;;;2.40;2.20;;;;;;;20.79;89.30;96791.25;5136145;27;20207;-59
2022/07/04 01:41:41;;;;;;;2.42;1.70;;;;;;;20.83;88.16;96795.16;5134491;27;20247;-58
2022/07/04 01:44:08;;;;;;;1.55;1.45;;;;;;;20.91;86.08;96804.06;5135222;27;20200;-61
2022/07/04 01:46:34;;;;;;;2.10;1.73;;;;;;;20.82;85.72;96796.22;5134752;27;20279;-60
2022/07/04 01:49:01;;;;;;;1.80;1.70;;;;;;;20.78;87.62;96789.59;5135031;27;20712;-59
2022/07/04 01:51:28;;;;;;;1.90;1.80;;;;;;;20.76;87.79;96794.31;5135413;27;20209;-60
2022/07/04 01:53:55;;;;;;;2.45;1.67;;;;;;;20.80;87.75;96798.28;5134932;27;20678;-60
2022/07/04 01:56:25;;;;;;;2.22;1.55;;;;;;;20.78;88.71;96804.88;5135403;27;20219;-61
2022/07/04 01:58:52;;;;;;;2.53;1.80;;;;;;;20.76;89.64;96813.13;5135612;27;20200;-59
2022/07/04 02:01:31;;;;;;;3.30;1.77;;;;;;;20.69;92.14;96825.72;5135022;27;20308;-59
2022/07/04 02:03:58;;;;;;;6.65;2.10;;;;;;;20.71;91.61;96836.28;5135295;27;20248;-59
2022/07/04 02:06:25;;;;;;;2.00;1.80;;;;;;;20.79;89.52;96852.25;5135479;27;20204;-60
2022/07/04 02:14:22;;;;;;;2.50;2.13;;;;;;;21.10;92.27;96917.13;5134218;27;20191;-59
2022/07/04 02:16:50;;;;;;;3.60;2.40;;;;;;;20.94;94.79;96922.00;5135506;27;20203;-60
2022/07/04 02:19:16;;;;;;;2.10;2.00;;;;;;;20.93;95.22;96923.84;5135373;27;20189;-58
2022/07/04 02:21:48;;;;;;;2.80;2.58;;;;;;;21.01;96.87;96931.72;5137817;27;20293;-59
2022/07/04 02:24:17;;;;;;;2.78;2.33;;;;;;;21.01;97.32;96949.75;5137385;27;20192;-57
2022/07/04 02:26:46;;;;;;;2.53;2.33;;;;;;;20.92;98.75;96956.31;5136025;27;20208;-58
2022/07/04 02:29:13;;;;;;;4.07;2.53;;;;;;;20.77;100.00;96959.94;5134483;27;20204;-59
2022/07/04 02:31:41;;;;;;;2.67;2.47;;;;;;;20.72;100.00;96967.81;5134673;27;20208;-59
2022/07/04 02:34:08;;;;;;;3.10;2.45;;;;;;;20.70;100.00;96971.69;5134884;27;20200;-60
2022/07/04 02:36:35;;;;;;;2.33;2.10;;;;;;;20.67;100.00;96983.69;5134679;27;20232;-59
2022/07/04 02:39:02;;;;;;;2.58;2.38;;;;;;;20.68;100.00;96992.56;5134581;27;20223;-57
2022/07/04 02:41:28;;;;;;;3.45;2.70;;;;;;;20.64;100.00;97007.44;5133085;27;20292;-56
2022/07/04 02:44:00;;;;;;;3.28;2.40;;;;;;;20.60;100.00;97014.22;5134868;27;20291;-57
2022/07/04 02:46:31;;;;;;;2.60;2.40;;;;;;;20.56;100.00;97021.84;5133396;27;20204;-57
2022/07/04 02:48:58;;;;;;;3.47;2.35;;;;;;;20.62;100.00;97030.97;5133769;27;20632;-58
2022/07/04 02:51:25;;;;;;;4.80;2.83;;;;;;;20.47;100.00;97023.03;5133973;27;20439;-57
2022/07/04 02:53:52;;;;;;;2.30;2.20;;;;;;;20.44;100.00;97028.78;5134011;27;20231;-57
2022/07/04 02:56:21;;;;;;;3.05;2.83;;;;;;;20.38;100.00;97034.09;5134329;27;20565;-58
2022/07/04 02:58:47;;;;;;;2.65;2.47;;;;;;;20.34;100.00;97033.66;5134531;27;20540;-58
2022/07/04 03:01:19;;;;;;;2.92;2.70;;;;;;;20.32;100.00;97041.09;5158223;27;20172;-57
2022/07/04 03:03:46;;;;;;;4.70;2.67;;;;;;;20.26;100.00;97041.84;5159987;27;20196;-59
2022/07/04 03:06:14;;;;;;;3.80;2.97;;;;;;;20.18;100.00;97040.13;5149573;27;20188;-58
2022/07/04 03:08:40;;;;;;;3.45;2.60;;;;;;;20.29;100.00;97036.09;5134454;27;20269;-59
2022/07/04 03:11:09;;;;;;;3.92;2.60;;;;;;;20.15;100.00;97031.63;5134735;27;20215;-59
2022/07/04 03:13:36;;;;;;;5.03;2.88;;;;;;;20.02;100.00;97018.06;5133438;27;20539;-60
2022/07/04 03:16:04;;;;;;;5.65;2.70;;;;;;;20.08;100.00;97015.44;5135131;27;20196;-58
2022/07/04 03:18:32;;;;;;;3.28;2.63;;;;;;;20.02;100.00;97015.38;5134684;27;20580;-59
2022/07/04 03:20:59;;;;;;;6.03;2.83;;;;;;;19.99;100.00;97005.03;5135180;27;20265;-59
2022/07/04 03:23:26;;;;;;;3.80;2.80;;;;;;;19.94;100.00;96994.88;5135050;27;20235;-59
2022/07/04 03:25:55;;;;;;;5.28;3.00;;;;;;;19.85;100.00;96975.38;5136416;27;20204;-58
2022/07/04 03:28:21;;;;;;;3.05;2.60;;;;;;;19.79;100.00;96943.94;5133009;27;20336;-58
2022/07/04 03:30:48;;;;;;;3.40;3.10;;;;;;;19.76;100.00;96938.97;5132877;27;20235;-57
2022/07/04 03:33:14;;;;;;;4.10;3.00;;;;;;;19.72;100.00;96916.22;5132945;27;20200;-61
2022/07/04 03:35:43;;;;;;;3.63;2.83;;;;;;;19.66;100.00;96878.63;5133236;27;20197;-61
2022/07/04 03:38:10;;;;;;;2.88;2.67;;;;;;;19.59;100.00;96883.91;5132967;27;20204;-60
2022/07/04 03:40:38;;;;;;;3.33;2.65;;;;;;;19.51;100.00;96884.06;5132802;27;20232;-56
2022/07/04 03:43:06;;;;;;;3.50;2.75;;;;;;;19.57;100.00;96891.31;5132868;27;20269;-57
2022/07/04 03:45:33;;;;;;;2.90;2.70;;;;;;;19.59;100.00;96888.47;5132278;27;20249;-56
2022/07/04 03:48:02;;;;;;;2.55;2.35;;;;;;;19.62;100.00;96891.59;5132307;27;20211;-55
2022/07/04 03:50:31;;;;;;;2.97;2.30;;;;;;;19.59;100.00;96893.81;5132499;27;20678;-56
2022/07/04 03:52:59;;;;;;;4.35;2.80;;;;;;;19.54;100.00;96891.72;5132911;27;20224;-57
2022/07/04 03:55:26;;;;;;;4.00;2.80;;;;;;;19.59;100.00;96872.34;5132786;27;20280;-57
2022/07/04 03:57:53;;;;;;;3.65;2.75;;;;;;;19.66;100.00;96830.31;5132598;27;20292;-57
2022/07/04 04:00:19;;;;;;;3.70;2.40;;;;;;;19.66;100.00;96843.72;5131657;27;20775;-56
2022/07/04 04:02:48;;;;;;;3.33;2.25;;;;;;;19.59;100.00;96862.44;5132515;27;20201;-57
2022/07/04 04:05:26;;;;;;;2.10;2.00;;;;;;;19.52;100.00;96861.53;5132734;27;20231;-56
2022/07/04 04:07:56;;;;;;;2.15;1.95;;;;;;;19.43;100.00;96857.34;5133032;27;20499;-58
2022/07/04 04:10:25;;;;;;;4.72;2.22;;;;;;;19.41;100.00;96851.38;5132843;27;20268;-57
2022/07/04 04:12:53;;;;;;;2.67;1.95;;;;;;;19.43;100.00;96860.03;5132750;27;21310;-58
2022/07/04 04:15:20;;;;;;;2.38;2.20;;;;;;;19.45;100.00;96854.50;5132689;27;20279;-58
2022/07/04 04:17:47;;;;;;;2.83;2.60;;;;;;;19.36;100.00;96859.94;5132307;27;20215;-57
2022/07/04 04:20:15;;;;;;;3.17;2.70;;;;;;;19.43;100.00;96873.44;5133059;27;20285;-57
2022/07/04 04:22:43;;;;;;;3.60;3.00;;;;;;;19.43;100.00;96884.19;5133017;28;20215;-57
2022/07/04 04:25:10;;;;;;;3.28;2.15;;;;;;;19.41;100.00;96901.47;5133059;28;20200;-57
2022/07/04 04:27:38;;;;;;;2.53;2.35;;;;;;;19.38;100.00;96903.47;5132883;28;20196;-57
2022/07/04 04:30:05;;;;;;;2.97;1.73;;;;;;;19.36;100.00;96915.44;5133068;27;20571;-57
2022/07/04 04:32:32;;;;;;;2.47;1.85;;;;;;;19.29;100.00;96936.00;5133023;27;20196;-58
2022/07/04 04:34:59;;;;;;;2.30;2.20;;;;;;;19.43;100.00;96948.53;5132002;28;20196;-58
2022/07/04 04:37:27;;;;;;;2.25;1.77;;;;;;;19.39;100.00;96974.88;5132338;28;20200;-58
2022/07/04 04:39:53;;;;;;;2.25;2.08;;;;;;;19.29;100.00;96978.91;5131901;28;20196;-56
2022/07/04 04:42:20;;;;;;;2.40;1.95;;;;;;;19.22;100.00;96978.00;5132215;28;20236;-57
2022/07/04 04:44:47;;;;;;;3.38;2.17;;;;;;;19.27;100.00;96986.31;5132616;27;20330;-57
2022/07/04 04:47:14;;;;;;;2.33;2.13;;;;;;;19.26;100.00;96990.00;5132020;28;20208;-57
2022/07/04 04:49:41;;;;;;;2.60;2.40;;;;;;;19.18;100.00;96988.25;5132041;28;20291;-59
2022/07/04 04:52:09;;;;;;;2.58;2.35;;;;;;;19.15;100.00;96993.16;5132413;27;20323;-60
2022/07/04 04:54:35;;;;;;;3.17;2.40;;;;;;;19.15;100.00;96998.53;5132633;27;20267;-59
2022/07/04 04:57:05;;;;;;;2.75;2.40;;;;;;;19.11;100.00;97002.59;5132197;28;20300;-59
2022/07/04 04:59:33;;;;;;;2.80;2.45;;;;;;;19.10;100.00;97017.84;5132289;28;20212;-58
2022/07/04 05:02:02;;;;;;;2.20;2.10;;;;;;;19.09;100.00;97024.25;5132794;28;20192;-58
2022/07/04 05:04:29;;;;;;;2.50;2.40;;;;;;;19.09;100.00;97026.09;5134520;27;20283;-57
2022/07/04 05:06:56;;;;;;;3.40;2.58;;;;;;;19.08;100.00;97005.66;5136773;27;20193;-59
2022/07/04 05:09:24;;;;;;;2.45;2.28;;;;;;;19.08;100.00;96990.41;5152171;27;20203;-60
2022/07/04 05:11:50;;;;;;;2.53;2.42;;;;;;;19.09;100.00;96991.25;5159013;27;20239;-59
2022/07/04 05:14:18;;;;;;;2.42;2.22;;;;;;;19.10;100.00;96993.72;5158587;27;20201;-59
2022/07/04 05:16:46;;;;;;;18.92;16.92;;;;;;;19.11;100.00;96997.25;5139146;27;20196;-58
2022/07/04 05:19:14;;;;;;;3.53;3.30;;;;;;;19.10;100.00;96993.72;5137928;27;20228;-60
2022/07/04 05:21:41;;;;;;;3.17;2.80;;;;;;;19.10;100.00;96995.56;5136540;27;20214;-60
2022/07/04 05:24:08;;;;;;;2.60;2.40;;;;;;;19.13;100.00;96987.19;5136384;27;20295;-59
2022/07/04 05:26:35;;;;;;;3.92;3.63;;;;;;;19.12;100.00;96990.88;5136218;27;20910;-56
2022/07/04 05:29:02;;;;;;;3.97;3.40;;;;;;;19.15;100.00;96993.16;5137473;27;20279;-56
2022/07/04 05:31:30;;;;;;;2.72;2.53;;;;;;;19.17;100.00;96993.78;5136169;27;20230;-57
2022/07/04 05:33:57;;;;;;;3.17;2.97;;;;;;;19.18;100.00;96993.63;5136566;27;20287;-57
2022/07/04 05:36:26;;;;;;;2.90;2.70;;;;;;;19.20;100.00;96996.94;5135455;27;20208;-55
2022/07/04 05:38:54;;;;;;;4.60;2.60;;;;;;;19.21;100.00;96992.41;5136436;27;20287;-55
2022/07/04 05:41:21;;;;;;;3.00;2.53;;;;;;;19.24;100.00;97008.94;5135298;27;20231;-55
2022/07/04 05:43:47;;;;;;;3.25;2.90;;;;;;;19.28;100.00;97009.41;5136421;27;20283;-55
2022/07/04 05:46:16;;;;;;;3.88;3.00;;;;;;;19.37;100.00;97017.16;5135270;27;20204;-56
2022/07/04 05:48:45;;;;;;;3.03;2.80;;;;;;;19.45;100.00;97016.22;5134882;27;20224;-55
2022/07/04 05:51:11;;;;;;;2.80;2.60;;;;;;;19.47;100.00;97018.75;5136610;27;20292;-55
2022/07/04 05:53:41;;;;;;;3.25;2.95;;;;;;;19.58;100.00;97021.78;5136213;27;20198;-58
2022/07/04 05:56:07;;;;;;;3.88;3.20;;;;;;;19.56;100.00;97031.84;5135389;27;20218;-57
2022/07/04 05:58:34;;;;;;;3.22;3.00;;;;;;;19.70;100.00;97019.38;5136527;27;20204;-59
2022/07/04 06:01:02;;;;;;;3.10;2.90;;;;;;;19.63;100.00;97018.50;5138877;27;20205;-57
2022/07/04 06:03:29;;;;;;;4.15;2.95;;;;;;;19.68;100.00;97005.34;5143262;27;20240;-57
2022/07/04 06:05:57;;;;;;;2.97;2.75;;;;;;;19.68;100.00;97000.81;5156817;27;20262;-53
2022/07/04 06:08:25;;;;;;;3.50;3.20;;;;;;;19.78;100.00;96995.13;5158336;27;20184;-58
2022/07/04 06:10:59;;;;;;;4.63;3.50;;;;;;;19.77;100.00;96980.88;5160015;27;20224;-60
2022/07/04 06:13:28;;;;;;;3.22;3.03;;;;;;;19.78;100.00;96974.50;5154152;27;20203;-58
2022/07/04 06:15:58;;;;;;;3.60;3.30;;;;;;;19.79;100.00;96946.63;5157575;27;20199;-63
2022/07/04 06:18:24;;;;;;;3.88;3.53;;;;;;;19.79;100.00;96938.59;5158639;27;20176;-62
2022/07/04 06:20:51;;;;;;;4.07;2.83;;;;;;;19.83;100.00;96917.56;5158718;27;20300;-61
2022/07/04 06:23:18;;;;;;;4.22;3.10;;;;;;;19.82;100.00;96905.16;5159774;27;20218;-58
2022/07/04 06:25:48;;;;;;;2.97;2.78;;;;;;;19.85;100.00;96902.91;5157901;27;20211;-58
2022/07/04 06:28:20;;;;;;;3.00;2.83;;;;;;;19.84;100.00;96898.56;5138511;27;20196;-58
2022/07/04 06:30:47;;;;;;;3.17;2.88;;;;;;;19.90;100.00;96890.75;5136174;27;20298;-58
2022/07/04 06:33:14;;;;;;;3.78;3.35;;;;;;;19.90;100.00;96886.22;5135180;27;20269;-59
2022/07/04 06:35:54;;;;;;;3.33;2.78;;;;;;;19.92;100.00;96886.03;5134554;27;20201;-58
2022/07/04 06:38:22;;;;;;;4.10;2.80;;;;;;;19.94;100.00;96881.31;5118443;27;20201;-59
2022/07/04 06:40:51;;;;;;;2.95;2.75;;;;;;;19.91;100.00;96895.13;5133404;27;20251;-61
2022/07/04 06:43:21;;;;;;;4.38;2.83;;;;;;;19.94;100.00;96889.34;5147064;27;20209;-62
2022/07/04 06:45:52;;;;;;;3.25;2.60;;;;;;;19.90;100.00;96898.81;5156986;27;20184;-61
2022/07/04 06:48:18;;;;;;;2.58;2.38;;;;;;;19.92;100.00;96894.91;5157514;27;20191;-60
2022/07/04 06:50:46;;;;;;;2.67;2.45;;;;;;;19.99;100.00;96894.94;5157373;27;20212;-61
2022/07/04 06:53:12;;;;;;;2.53;2.42;;;;;;;19.99;100.00;96885.03;5159994;27;20189;-60
2022/07/04 06:55:41;;;;;;;2.38;2.28;;;;;;;20.04;100.00;96861.13;5159477;27;20210;-61
2022/07/04 06:58:09;;;;;;;3.13;2.50;;;;;;;20.04;100.00;96868.34;5160397;27;20214;-64
2022/07/04 07:00:38;;;;;;;2.60;2.40;;;;;;;20.04;100.00;96860.31;5160085;27;20187;-57
2022/07/04 07:03:06;;;;;;;2.35;1.92;;;;;;;20.01;100.00;96855.34;5159635;27;20214;-58
2022/07/04 07:05:48;;;;;;;2.70;2.47;;;;;;;19.97;100.00;96843.31;5159530;27;20190;-57
2022/07/04 07:08:16;;;;;;;2.42;2.33;;;;;;;19.98;100.00;96812.78;5155588;27;20184;-57
2022/07/04 07:10:44;;;;;;;4.88;2.58;;;;;;;20.01;100.00;96812.38;5159446;27;20193;-58
2022/07/04 07:13:12;;;;;;;5.28;4.82;;;;;;;20.07;100.00;96846.47;5158607;27;20211;-57
2022/07/04 07:15:42;;;;;;;3.60;3.20;;;;;;;20.07;100.00;96850.00;5159083;27;20177;-61
2022/07/04 07:18:10;;;;;;;4.65;3.03;;;;;;;20.10;100.00;96872.94;5154829;27;20183;-61
2022/07/04 07:20:38;;;;;;;3.53;2.38;;;;;;;20.22;100.00;96882.94;5157248;27;20223;-63
2022/07/04 07:23:05;;;;;;;2.67;2.47;;;;;;;20.45;100.00;96888.06;5148922;27;20223;-64
2022/07/04 07:25:32;;;;;;;2.80;2.38;;;;;;;20.76;100.00;96887.59;5141953;27;20212;-58
2022/07/04 07:27:59;;;;;;;3.42;2.95;;;;;;;21.00;100.00;96875.47;5135151;27;20230;-57
2022/07/04 07:30:26;;;;;;;3.08;2.75;;;;;;;21.30;100.00;96872.25;5133898;27;20205;-59
2022/07/04 07:32:56;;;;;;;3.05;2.80;;;;;;;21.64;100.00;96871.28;5133433;27;20221;-57
2022/07/04 07:35:24;;;;;;;3.15;2.35;;;;;;;21.76;100.00;96864.22;5133688;27;20200;-57
2022/07/04 07:37:51;;;;;;;3.05;2.85;;;;;;;22.28;100.00;96868.72;5133047;27;20200;-58
2022/07/04 07:40:19;;;;;;;3.50;2.75;;;;;;;22.71;98.41;96866.34;5133295;27;20224;-58
2022/07/04 07:42:46;;;;;;;3.67;3.38;;;;;;;23.01;97.41;96855.84;5131213;27;20296;-54
2022/07/04 07:45:12;;;;;;;3.78;3.30;;;;;;;23.18;91.92;96853.47;5132389;27;20196;-55
2022/07/04 07:47:41;;;;;;;4.43;3.30;;;;;;;23.46;93.88;96851.25;5131508;27;20881;-53
2022/07/04 07:50:09;;;;;;;3.90;3.10;;;;;;;23.86;91.45;96850.94;5133207;27;20208;-53
2022/07/04 07:52:36;;;;;;;5.75;3.05;;;;;;;24.01;89.11;96851.41;5131132;27;20281;-53
2022/07/04 07:55:03;;;;;;;3.22;2.88;;;;;;;24.09;88.27;96856.53;5131093;27;20284;-52
2022/07/04 07:57:34;;;;;;;3.20;2.90;;;;;;;23.71;89.34;96865.59;5130899;27;20204;-53
2022/07/04 08:00:02;;;;;;;3.15;2.80;;;;;;;23.59;88.79;96872.75;5130371;27;20200;-53
2022/07/04 08:05:11;;;;;;;3.60;3.30;;;;;;;23.12;94.20;96879.47;5131108;27;20192;-53
2022/07/04 08:07:38;;;;;;;3.00;2.80;;;;;;;23.13;94.15;96883.78;5130086;27;20821;-53
2022/07/04 08:10:05;;;;;;;3.40;2.85;;;;;;;23.08;92.67;96880.09;5130874;27;20196;-52
2022/07/04 08:12:32;;;;;;;3.28;3.00;;;;;;;22.81;91.20;96885.59;5130253;27;20550;-52
2022/07/04 08:15:00;;;;;;;3.60;2.63;;;;;;;22.56;95.25;96886.50;5131838;27;20204;-53
2022/07/04 08:17:28;;;;;;;3.95;3.40;;;;;;;22.71;90.47;96879.84;5131435;27;20200;-52
2022/07/04 08:19:54;;;;;;;4.55;2.80;;;;;;;22.58;92.69;96877.16;5131200;27;20208;-52
2022/07/04 08:22:23;;;;;;;3.30;2.53;;;;;;;22.50;98.15;96877.38;5131739;27;20402;-53
2022/07/04 08:24:52;;;;;;;3.20;2.97;;;;;;;22.59;94.87;96886.91;5131231;28;20640;-53
2022/07/04 08:27:19;;;;;;;4.43;3.08;;;;;;;;;;5131285;28;20615;-53
2022/07/04 08:29:46;;;;;;;3.92;2.97;;;;;;;22.49;91.63;96883.84;5131395;27;20235;-53
2022/07/04 08:32:13;;;;;;;5.13;2.72;;;;;;;22.53;94.54;96879.66;5130112;28;20220;-53
2022/07/04 08:34:42;;;;;;;3.00;2.70;;;;;;;22.63;92.84;96887.31;5130461;28;20200;-53
2022/07/04 08:37:09;;;;;;;3.08;2.80;;;;;;;22.65;88.40;96877.97;5131034;28;20208;-54
2022/07/04 08:39:38;;;;;;;3.50;3.10;;;;;;;22.71;93.84;96871.75;5133542;27;20211;-53
2022/07/04 08:42:10;;;;;;;3.80;3.40;;;;;;;23.01;91.78;96871.22;5134950;27;20228;-53
2022/07/04 08:44:41;;;;;;;2.95;2.70;;;;;;;23.63;93.04;96873.94;5134540;27;20211;-53
2022/07/04 08:47:11;;;;;;;6.55;2.70;;;;;;;24.17;90.29;96870.63;5135362;27;20283;-53
2022/07/04 08:49:40;;;;;;;2.97;2.67;;;;;;;24.33;84.50;96874.63;5134075;27;20204;-52
2022/07/04 08:52:11;;;;;;;4.10;3.10;;;;;;;24.44;81.23;96875.75;5134897;27;20324;-52
2022/07/04 09:00:09;;;;;;;2.80;2.60;;;;;;;24.99;76.41;96874.72;5134276;27;20199;-54
2022/07/04 09:02:37;;;;;;;3.25;2.70;;;;;;;25.29;78.44;96874.75;5134126;27;20192;-52
2022/07/04 09:05:05;;;;;;;3.78;2.80;;;;;;;25.65;81.60;96877.31;5135212;27;20227;-53
2022/07/04 09:07:31;;;;;;;3.33;3.00;;;;;;;26.03;72.59;96884.25;5134586;27;20200;-53
2022/07/04 09:10:03;;;;;;;2.70;2.45;;;;;;;26.46;71.58;96884.75;5135293;27;20193;-52
2022/07/04 09:12:31;;;;;;;2.63;2.42;;;;;;;26.77;66.84;96875.38;5137421;27;20315;-54
2022/07/04 09:14:59;;;;;;;2.70;2.40;;;;;;;26.91;71.78;96879.50;5138607;27;20197;-53
2022/07/04 09:17:25;;;;;;;3.63;2.40;;;;;;;26.65;70.28;96880.81;5136219;27;20212;-53
2022/07/04 09:20:14;;;;;;;2.88;2.40;;;;;;;26.51;72.46;96874.00;5137035;27;20220;-54
2022/07/04 09:22:43;;;;;;;4.63;2.20;;;;;;;26.85;70.88;96874.22;5134747;27;20576;-52
2022/07/04 09:25:14;;;;;;;2.65;2.00;;;;;;;26.84;67.42;96873.38;5135287;27;20666;-54
2022/07/04 09:27:44;;;;;;;2.28;2.08;;;;;;;26.62;71.11;96884.00;5137731;27;20609;-52
2022/07/04 09:30:12;;;;;;;4.68;2.70;;;;;;;26.63;70.44;96885.69;5135641;27;20701;-55
2022/07/04 09:32:40;;;;;;;2.60;2.40;;;;;;;26.50;68.92;96876.97;5139865;27;20216;-52
2022/07/04 09:35:08;;;;;;;3.97;2.60;;;;;;;26.58;68.65;96874.69;5152391;27;20227;-54
2022/07/04 09:37:38;;;;;;;2.72;2.53;;;;;;;26.70;66.71;96877.41;5158091;27;20177;-52
2022/07/04 09:40:06;;;;;;;2.63;2.42;;;;;;;27.02;65.83;96872.41;5157865;27;20177;-54
2022/07/04 09:42:43;;;;;;;3.47;3.17;;;;;;;26.51;69.93;96875.88;5159765;27;20200;-53
2022/07/04 09:45:11;;;;;;;3.65;2.90;;;;;;;26.98;68.19;96874.78;5161100;27;20216;-53
2022/07/04 09:47:38;;;;;;;4.22;2.50;;;;;;;26.77;67.20;96871.84;5157534;27;20180;-53
2022/07/04 09:50:08;;;;;;;5.63;3.08;;;;;;;26.96;69.74;96859.78;5158688;27;20193;-54
2022/07/04 09:52:46;;;;;;;2.78;2.60;;;;;;;27.23;66.81;96869.00;5156592;27;20236;-54
2022/07/04 09:55:13;;;;;;;3.50;2.50;;;;;;;27.45;62.96;96867.31;5159039;27;20172;-52
2022/07/04 09:57:46;;;;;;;3.22;2.47;;;;;;;27.79;62.92;96859.16;5158285;27;20183;-53
2022/07/04 10:00:24;;;;;;;3.78;2.80;;;;;;;27.38;63.52;96858.44;5158582;27;20560;-53
2022/07/04 10:02:51;;;;;;;3.35;2.95;;;;;;;27.42;65.21;96856.88;5153195;27;20172;-53
2022/07/04 10:05:21;;;;;;;2.63;2.42;;;;;;;27.26;67.47;96860.38;5137496;27;20216;-55
2022/07/04 10:07:49;;;;;;;2.72;2.47;;;;;;;27.08;65.95;96858.69;5134182;27;20200;-56
2022/07/04 10:10:30;;;;;;;6.90;2.70;;;;;;;27.12;68.09;96859.03;5133791;27;20220;-55
2022/07/04 10:13:02;;;;;;;4.35;2.63;;;;;;;27.03;66.38;96860.47;5133610;27;20240;-54
2022/07/04 10:15:30;;;;;;;2.65;2.45;;;;;;;26.81;66.46;96868.41;5133564;27;20310;-55
2022/07/04 10:17:57;;;;;;;2.58;2.38;;;;;;;26.67;69.54;96867.84;5133593;27;20192;-54
2022/07/04 10:20:25;;;;;;;2.90;2.58;;;;;;;26.62;70.58;96864.19;5133669;27;20544;-55
2022/07/04 10:22:52;;;;;;;2.80;2.60;;;;;;;27.18;67.94;96863.47;5134223;27;20207;-54
2022/07/04 10:25:24;;;;;;;3.75;3.00;;;;;;;27.29;68.17;96862.59;5133721;27;20283;-52
2022/07/04 10:27:51;;;;;;;2.90;2.70;;;;;;;27.11;68.44;96862.78;5133826;27;20235;-53
2022/07/04 10:30:22;;;;;;;3.70;2.50;;;;;;;27.60;66.96;96855.84;5134032;27;20207;-53
2022/07/04 10:32:52;;;;;;;4.38;2.83;;;;;;;27.68;62.65;96852.75;5132111;27;20213;-53
2022/07/04 10:35:50;;;;;;;3.90;2.85;;;;;;;27.30;64.21;96856.13;5133691;27;20196;-55
2022/07/04 10:38:18;;;;;;;3.20;2.90;;;;;;;26.91;64.78;96854.25;5133514;27;20200;-52
2022/07/04 10:40:46;;;;;;;4.55;2.80;;;;;;;26.80;65.64;96858.63;5133900;27;20387;-56
2022/07/04 10:43:53;;;;;;;3.80;2.67;;;;;;;26.58;67.69;96853.00;5133427;27;20587;-54
2022/07/04 10:46:46;;;;;;;3.05;2.60;;;;;;;26.20;73.68;96855.41;5133540;27;20517;-53
2022/07/04 10:49:24;;;;;;;3.28;2.97;;;;;;;26.13;69.03;96854.66;5132763;27;20214;-53
2022/07/04 10:51:54;;;;;;;3.50;3.00;;;;;;;26.11;68.80;96854.09;5133041;27;20261;-54
2022/07/04 10:54:22;;;;;;;3.28;2.67;;;;;;;26.06;69.77;96849.34;5132626;27;20253;-54
2022/07/04 10:56:53;;;;;;;3.05;2.80;;;;;;;25.97;70.14;96852.66;5133348;27;20205;-52
2022/07/04 10:59:25;;;;;;;4.63;3.17;;;;;;;25.92;69.02;96849.81;5132334;27;20680;-54
2022/07/04 11:02:09;;;;;;;3.47;2.72;;;;;;;25.85;71.29;96851.81;5131916;27;20260;-55
2022/07/04 11:05:06;;;;;;;2.72;2.53;;;;;;;25.92;71.40;96844.41;5127642;27;20261;-54
2022/07/04 11:08:08;;;;;;;3.63;3.00;;;;;;;25.89;72.35;96851.13;5126527;27;20587;-55
2022/07/04 11:10:38;;;;;;;3.45;3.15;;;;;;;26.06;71.71;96848.53;5133391;27;20215;-55
2022/07/04 11:13:23;;;;;;;3.55;2.70;;;;;;;26.17;68.77;96845.00;5131223;27;21835;-55
2022/07/04 11:16:06;;;;;;;3.97;2.70;;;;;;;26.20;70.37;96837.25;5131731;27;20287;-54
2022/07/04 11:18:51;;;;;;;3.05;2.83;;;;;;;26.48;73.66;96835.69;5132426;27;20299;-53
2022/07/04 11:21:24;;;;;;;4.60;3.00;;;;;;;26.64;67.06;96830.34;5130808;27;20309;-54
2022/07/04 11:23:56;;;;;;;4.60;2.85;;;;;;;27.01;70.63;96832.72;5129935;27;20667;-56
2022/07/04 11:26:23;;;;;;;2.83;2.55;;;;;;;27.27;67.24;96837.59;5132240;27;20220;-53
2022/07/04 11:28:49;;;;;;;4.70;3.53;;;;;;;27.74;66.86;96831.94;5132259;27;20235;-54
2022/07/04 11:31:16;;;;;;;4.03;3.00;;;;;;;27.90;64.47;96831.09;5131150;27;20235;-54
2022/07/04 11:33:45;;;;;;;2.88;2.67;;;;;;;27.94;65.77;96834.97;5146458;27;20227;-54
2022/07/04 11:36:15;;;;;;;3.45;2.70;;;;;;;28.13;63.14;96837.19;5152702;27;20208;-53
2022/07/04 11:38:51;;;;;;;3.10;2.50;;;;;;;27.96;62.85;96832.81;5144471;27;20249;-54
2022/07/04 11:46:51;;;;;;;2.83;2.63;;;;;;;27.98;61.92;96807.03;5131482;27;20256;-54
2022/07/04 11:49:17;;;;;;;2.97;2.60;;;;;;;27.92;61.53;96807.19;5132652;27;20198;-54
2022/07/04 11:51:48;;;;;;;2.72;2.53;;;;;;;27.94;64.39;96805.88;5132452;27;20284;-54
2022/07/04 11:54:18;;;;;;;4.22;2.78;;;;;;;28.22;62.42;96804.97;5131231;27;20232;-54
2022/07/04 11:56:45;;;;;;;2.65;2.45;;;;;;;28.41;61.89;96803.59;5132380;27;20212;-52